createdAt,value
2023-02-07T00:01:11.479Z,-0.11
2023-02-07T00:03:38.084Z,-0.15
2023-02-07T00:06:06.779Z,-0.23
2023-02-07T00:08:33.143Z,-0.12
2023-02-07T00:11:04.589Z,-0.12
2023-02-07T00:13:30.955Z,-0.24
2023-02-07T00:15:57.331Z,-0.28
2023-02-07T00:18:23.694Z,-0.18
2023-02-07T00:21:01.273Z,-0.13
2023-02-07T00:23:27.995Z,-0.36
2023-02-07T00:25:54.407Z,-0.93
2023-02-07T00:28:20.903Z,-0.77
2023-02-07T00:30:47.498Z,-0.62
2023-02-07T00:33:14.463Z,-0.50
2023-02-07T00:35:40.976Z,-1.38
2023-02-07T00:38:07.417Z,-1.83
2023-02-07T00:40:33.828Z,-1.90
2023-02-07T00:43:00.242Z,-1.78
2023-02-07T00:45:26.638Z,-1.55
2023-02-07T00:47:53.022Z,-1.65
2023-02-07T00:50:19.497Z,-1.67
2023-02-07T00:52:45.862Z,-1.66
2023-02-07T00:55:12.251Z,-1.65
2023-02-07T00:57:38.609Z,-1.66
2023-02-07T01:00:05.442Z,0.69
2023-02-07T01:02:31.839Z,2.82
2023-02-07T01:05:00.083Z,-1.29
2023-02-07T01:07:26.515Z,-1.70
2023-02-07T01:09:52.887Z,-1.66
2023-02-07T01:12:19.283Z,-1.67
2023-02-07T01:14:45.669Z,-1.59
2023-02-07T01:17:12.054Z,-1.60
2023-02-07T01:19:38.418Z,-1.50
2023-02-07T01:22:05.873Z,-1.67
2023-02-07T01:24:32.259Z,-1.76
2023-02-07T01:26:58.645Z,-1.73
2023-02-07T01:29:25.042Z,-1.91
2023-02-07T01:31:51.671Z,-1.84
2023-02-07T01:34:18.113Z,-1.81
2023-02-07T01:36:44.526Z,-1.84
2023-02-07T01:39:11.229Z,-1.82
2023-02-07T01:41:38.103Z,-1.94
2023-02-07T01:44:21.660Z,-1.96
2023-02-07T01:46:48.683Z,-1.94
2023-02-07T01:49:18.685Z,-1.91
2023-02-07T01:51:48.637Z,-2.02
2023-02-07T01:54:16.134Z,-1.93
2023-02-07T01:56:48.943Z,-1.95
2023-02-07T01:59:15.520Z,-1.94
2023-02-07T02:01:42.290Z,-1.88
2023-02-07T02:04:08.688Z,-2.16
2023-02-07T02:06:35.259Z,-2.18
2023-02-07T02:09:07.308Z,-2.19
2023-02-07T02:12:14.772Z,-2.17
2023-02-07T02:14:47.196Z,-2.13
2023-02-07T02:17:22.781Z,-2.18
2023-02-07T02:19:55.216Z,-2.26
2023-02-07T02:22:28.506Z,-2.17
2023-02-07T02:25:03.850Z,-2.18
2023-02-07T02:27:43.728Z,-2.22
2023-02-07T02:30:37.986Z,-2.14
2023-02-07T02:33:14.600Z,-2.16
2023-02-07T02:36:10.319Z,-2.21
2023-02-07T02:38:52.113Z,-2.24
2023-02-07T02:41:24.801Z,-2.24
2023-02-07T02:44:01.627Z,-2.20
2023-02-07T02:46:31.690Z,-2.16
2023-02-07T02:48:58.445Z,-2.25
2023-02-07T02:51:24.814Z,-2.34
2023-02-07T02:53:55.493Z,-2.21
2023-02-07T02:56:55.887Z,-2.24
2023-02-07T02:59:28.278Z,-2.36
2023-02-07T03:02:17.902Z,-2.30
2023-02-07T03:05:16.378Z,-2.40
2023-02-07T03:07:52.761Z,-2.35
2023-02-07T03:10:40.583Z,-2.40
2023-02-07T03:13:27.075Z,-2.44
2023-02-07T03:16:04.178Z,-2.39
2023-02-07T03:19:13.409Z,-2.24
2023-02-07T03:21:45.916Z,-2.31
2023-02-07T03:24:20.074Z,-2.36
2023-02-07T03:26:47.069Z,-2.34
2023-02-07T03:29:15.131Z,-2.36
2023-02-07T03:31:43.688Z,-2.39
2023-02-07T03:34:17.816Z,-2.23
2023-02-07T03:37:33.765Z,-2.22
2023-02-07T03:40:00.263Z,-2.42
2023-02-07T03:42:33.180Z,-2.34
2023-02-07T03:45:01.111Z,-2.51
2023-02-07T03:47:27.772Z,-2.49
2023-02-07T03:49:54.655Z,-2.50
2023-02-07T03:52:21.058Z,-2.82
2023-02-07T03:54:47.450Z,-2.75
2023-02-07T03:57:13.939Z,-2.67
2023-02-07T03:59:40.382Z,-2.63
2023-02-07T04:02:06.823Z,-2.58
2023-02-07T04:04:33.222Z,-2.58
2023-02-07T04:06:59.601Z,-2.76
2023-02-07T04:09:26.141Z,-2.75
2023-02-07T04:11:52.588Z,-2.61
2023-02-07T04:14:22.352Z,-2.61
2023-02-07T04:16:49.288Z,-2.60
2023-02-07T04:19:16.333Z,-2.66
2023-02-07T04:21:42.852Z,-2.64
2023-02-07T04:24:09.534Z,-2.64
2023-02-07T04:26:35.966Z,-2.67
2023-02-07T04:29:02.358Z,-2.60
2023-02-07T04:31:28.819Z,-2.70
2023-02-07T04:33:55.248Z,-2.83
2023-02-07T04:36:22.645Z,-2.75
2023-02-07T04:38:49.177Z,-2.75
2023-02-07T04:41:15.616Z,-2.65
2023-02-07T04:43:41.996Z,-2.85
2023-02-07T04:46:08.871Z,-2.89
2023-02-07T04:48:37.648Z,-2.81
2023-02-07T04:51:05.131Z,-2.86
2023-02-07T04:53:31.524Z,-2.92
2023-02-07T04:55:57.948Z,-2.85
2023-02-07T04:58:24.549Z,-2.85
2023-02-07T05:00:52.872Z,-2.95
2023-02-07T05:03:19.352Z,-2.91
2023-02-07T05:05:45.906Z,-2.98
2023-02-07T05:08:13.034Z,-3.00
2023-02-07T05:10:39.911Z,-3.08
2023-02-07T05:13:07.220Z,-3.03
2023-02-07T05:15:33.659Z,-3.08
2023-02-07T05:18:00.072Z,-2.99
2023-02-07T05:20:26.997Z,-2.97
2023-02-07T05:22:53.440Z,-2.95
2023-02-07T05:25:19.811Z,-2.92
2023-02-07T05:27:46.296Z,-2.99
2023-02-07T05:30:13.248Z,-2.96
2023-02-07T05:32:58.413Z,-3.00
2023-02-07T05:35:24.806Z,-2.95
2023-02-07T05:37:51.200Z,-2.97
2023-02-07T05:40:17.615Z,-3.27
2023-02-07T05:42:43.994Z,-3.25
2023-02-07T05:45:11.393Z,-3.25
2023-02-07T05:47:37.923Z,-3.34
2023-02-07T05:50:04.633Z,-3.23
2023-02-07T05:52:31.037Z,-3.19
2023-02-07T05:54:57.488Z,-3.16
2023-02-07T05:57:23.968Z,-3.01
2023-02-07T05:59:50.353Z,-3.12
2023-02-07T06:02:17.001Z,-3.03
2023-02-07T06:04:43.405Z,-3.09
2023-02-07T06:07:09.882Z,-3.01
2023-02-07T06:09:36.253Z,-2.99
2023-02-07T06:12:05.175Z,-3.11
2023-02-07T06:14:31.684Z,-2.98
2023-02-07T06:16:58.068Z,-3.00
2023-02-07T06:19:24.441Z,-2.93
2023-02-07T06:21:50.836Z,-2.91
2023-02-07T06:24:17.296Z,-2.89
2023-02-07T06:26:44.370Z,-2.87
2023-02-07T06:29:10.808Z,-2.80
2023-02-07T06:31:37.286Z,-2.79
2023-02-07T06:34:03.997Z,-2.79
2023-02-07T06:36:30.401Z,-2.98
2023-02-07T06:38:57.355Z,-3.04
2023-02-07T06:41:23.758Z,-3.12
2023-02-07T06:43:50.123Z,-3.02
2023-02-07T06:46:16.538Z,-3.07
2023-02-07T06:48:42.979Z,-3.19
2023-02-07T06:51:09.383Z,-3.17
2023-02-07T06:53:35.823Z,-3.10
2023-02-07T06:56:02.578Z,-3.13
2023-02-07T06:58:29.027Z,-3.35
2023-02-07T07:00:55.461Z,-3.21
2023-02-07T07:03:26.906Z,-3.07
2023-02-07T07:05:53.318Z,-3.07
2023-02-07T07:08:19.793Z,-3.12
2023-02-07T07:10:46.188Z,-3.20
2023-02-07T07:13:15.485Z,-3.24
2023-02-07T07:15:41.924Z,-3.27
2023-02-07T07:18:08.318Z,-3.26
2023-02-07T07:20:34.770Z,-3.09
2023-02-07T07:23:01.163Z,-3.15
2023-02-07T07:25:27.578Z,-3.24
2023-02-07T07:27:54.054Z,-3.35
2023-02-07T07:30:21.429Z,-3.43
2023-02-07T07:32:48.926Z,-3.27
2023-02-07T07:35:15.505Z,-3.26
2023-02-07T07:37:42.130Z,-3.09
2023-02-07T07:40:09.369Z,-2.93
2023-02-07T07:42:36.826Z,-2.90
2023-02-07T07:45:03.674Z,-2.90
2023-02-07T07:47:30.079Z,-3.04
2023-02-07T07:49:56.544Z,-3.14
2023-02-07T07:52:22.931Z,-3.14
2023-02-07T07:54:49.365Z,-3.06
2023-02-07T07:57:15.781Z,-3.08
2023-02-07T07:59:42.152Z,-3.15
2023-02-07T08:02:15.057Z,-3.11
2023-02-07T08:04:41.611Z,-2.87
2023-02-07T08:07:08.094Z,-2.97
2023-02-07T08:09:34.480Z,-2.97
2023-02-07T08:12:00.868Z,-2.90
2023-02-07T08:14:27.244Z,-2.81
2023-02-07T08:16:53.648Z,-2.80
2023-02-07T08:19:20.053Z,-2.65
2023-02-07T08:21:46.524Z,-2.66
2023-02-07T08:24:12.928Z,-2.59
2023-02-07T08:26:39.351Z,-2.58
2023-02-07T08:29:05.785Z,-2.49
2023-02-07T08:31:32.325Z,-2.40
2023-02-07T08:33:58.753Z,-2.37
2023-02-07T08:36:25.213Z,-2.33
2023-02-07T08:38:51.913Z,-2.25
2023-02-07T08:41:18.332Z,-2.15
2023-02-07T08:43:44.725Z,-2.07
2023-02-07T08:46:11.236Z,-1.91
2023-02-07T08:48:37.695Z,-1.93
2023-02-07T08:51:06.193Z,-1.78
2023-02-07T08:53:32.738Z,-1.76
2023-02-07T08:55:59.173Z,-1.73
2023-02-07T08:58:25.695Z,-1.70
2023-02-07T09:00:52.247Z,-1.60
2023-02-07T09:03:18.645Z,-1.44
2023-02-07T09:05:45.139Z,-1.49
2023-02-07T09:08:11.533Z,-1.40
2023-02-07T09:10:38.554Z,-1.53
2023-02-07T09:13:05.189Z,-1.31
2023-02-07T09:15:31.589Z,-1.33
2023-02-07T09:17:57.986Z,-1.30
2023-02-07T09:20:24.446Z,-1.21
2023-02-07T09:23:09.481Z,-1.19
2023-02-07T09:25:38.120Z,-0.98
2023-02-07T09:28:04.696Z,-0.62
2023-02-07T09:30:31.174Z,-0.58
2023-02-07T09:32:58.270Z,-0.58
2023-02-07T09:35:24.927Z,-0.53
2023-02-07T09:37:54.736Z,-0.47
2023-02-07T09:40:22.173Z,-0.59
2023-02-07T09:42:57.308Z,-0.59
2023-02-07T09:45:27.296Z,-0.39
2023-02-07T09:47:59.883Z,-0.46
2023-02-07T09:50:32.790Z,-0.38
2023-02-07T09:53:04.501Z,-0.24
2023-02-07T09:55:40.194Z,-0.30
2023-02-07T09:58:15.055Z,-0.36
2023-02-07T10:00:42.508Z,-0.13
2023-02-07T10:03:18.810Z,-0.19
2023-02-07T10:06:01.483Z,-0.22
2023-02-07T10:08:39.753Z,-0.18
2023-02-07T10:11:10.499Z,-0.17
2023-02-07T10:14:07.248Z,0.05
2023-02-07T10:16:54.876Z,0.13
2023-02-07T10:19:36.468Z,0.13
2023-02-07T10:22:08.784Z,0.19
2023-02-07T10:24:38.120Z,0.30
2023-02-07T10:27:13.450Z,0.28
2023-02-07T10:29:57.060Z,0.22
2023-02-07T10:32:26.336Z,0.29
2023-02-07T10:34:56.217Z,0.25
2023-02-07T10:37:25.802Z,0.38
2023-02-07T10:40:29.056Z,0.48
2023-02-07T10:43:10.576Z,0.58
2023-02-07T10:45:39.676Z,0.69
2023-02-07T10:48:15.666Z,0.64
2023-02-07T10:50:42.145Z,0.84
2023-02-07T10:53:08.626Z,0.86
2023-02-07T10:55:46.321Z,1.32
2023-02-07T10:58:23.094Z,1.40
2023-02-07T11:00:51.939Z,1.89
2023-02-07T11:03:23.316Z,1.93
2023-02-07T11:05:55.367Z,2.20
2023-02-07T11:08:24.578Z,2.18
2023-02-07T11:10:53.376Z,2.65
2023-02-07T11:13:23.467Z,3.48
2023-02-07T11:16:04.601Z,3.60
2023-02-07T11:18:44.758Z,4.44
2023-02-07T11:21:24.829Z,5.64
2023-02-07T11:23:52.259Z,3.87
2023-02-07T11:26:20.509Z,4.00
2023-02-07T11:28:47.372Z,3.34
2023-02-07T11:31:17.967Z,2.81
2023-02-07T11:33:44.463Z,1.92
2023-02-07T11:36:12.370Z,1.91
2023-02-07T11:38:50.361Z,1.63
2023-02-07T11:41:19.057Z,1.43
2023-02-07T11:43:55.570Z,1.57
2023-02-07T11:46:24.173Z,1.44
2023-02-07T11:48:53.854Z,1.42
2023-02-07T11:51:20.243Z,1.29
2023-02-07T11:53:56.018Z,1.38
2023-02-07T11:56:28.344Z,1.43
2023-02-07T11:58:55.275Z,1.34
2023-02-07T12:01:28.823Z,1.35
2023-02-07T12:04:00.629Z,1.53
2023-02-07T12:06:43.777Z,1.46
2023-02-07T12:09:22.386Z,1.58
2023-02-07T12:11:49.376Z,1.43
2023-02-07T12:14:32.229Z,1.52
2023-02-07T12:17:00.102Z,1.43
2023-02-07T12:19:33.955Z,1.41
2023-02-07T12:22:08.163Z,1.33
2023-02-07T12:24:42.817Z,1.55
2023-02-07T12:27:09.115Z,1.40
2023-02-07T12:30:04.086Z,1.42
2023-02-07T12:32:42.782Z,1.78
2023-02-07T12:35:23.197Z,1.69
2023-02-07T12:38:12.112Z,1.61
2023-02-07T12:40:54.172Z,1.88
2023-02-07T12:43:22.660Z,2.06
2023-02-07T12:46:01.140Z,2.54
2023-02-07T12:48:52.089Z,2.68
2023-02-07T12:51:27.733Z,2.69
2023-02-07T12:54:08.380Z,2.63
2023-02-07T12:56:50.193Z,2.82
2023-02-07T12:59:40.462Z,2.60
2023-02-07T13:02:24.889Z,2.84
2023-02-07T13:05:10.406Z,2.84
2023-02-07T13:07:51.901Z,3.01
2023-02-07T13:10:23.190Z,3.06
2023-02-07T13:13:06.144Z,3.10
2023-02-07T13:15:47.699Z,2.97
2023-02-07T13:18:38.992Z,2.76
2023-02-07T13:21:31.162Z,2.82
2023-02-07T13:24:01.380Z,2.79
2023-02-07T13:26:28.398Z,2.80
2023-02-07T13:28:57.110Z,2.68
2023-02-07T13:31:35.789Z,2.82
2023-02-07T13:34:03.396Z,2.81
2023-02-07T13:36:40.970Z,3.07
2023-02-07T13:39:28.656Z,3.25
2023-02-07T13:42:10.822Z,2.96
2023-02-07T13:44:45.812Z,3.07
2023-02-07T13:47:22.281Z,3.45
2023-02-07T13:50:12.353Z,3.47
2023-02-07T13:52:44.587Z,3.54
2023-02-07T13:55:17.329Z,3.26
2023-02-07T13:58:02.847Z,3.27
2023-02-07T14:00:57.289Z,3.22
2023-02-07T14:03:28.884Z,3.03
2023-02-07T14:06:14.993Z,3.16
2023-02-07T14:08:42.771Z,3.32
2023-02-07T14:11:33.957Z,3.57
2023-02-07T14:14:27.476Z,5.14
2023-02-07T14:16:53.785Z,6.55
2023-02-07T14:19:45.456Z,8.07
2023-02-07T14:22:32.436Z,9.31
2023-02-07T14:24:58.874Z,9.84
2023-02-07T14:27:39.308Z,10.77
2023-02-07T14:30:11.810Z,12.39
2023-02-07T14:33:13.630Z,12.07
2023-02-07T14:36:25.328Z,10.34
2023-02-07T14:39:29.823Z,10.20
2023-02-07T14:42:11.334Z,11.21
2023-02-07T14:44:40.026Z,10.64
2023-02-07T14:47:08.092Z,9.31
2023-02-07T14:49:46.644Z,6.87
2023-02-07T14:52:15.919Z,6.12
2023-02-07T14:54:46.448Z,5.07
2023-02-07T14:57:41.273Z,4.32
2023-02-07T15:00:07.523Z,3.99
2023-02-07T15:02:38.491Z,4.06
2023-02-07T15:05:13.950Z,4.25
2023-02-07T15:07:43.375Z,4.03
2023-02-07T15:10:16.231Z,4.00
2023-02-07T15:12:45.779Z,3.86
2023-02-07T15:15:20.951Z,3.56
2023-02-07T15:17:48.401Z,3.75
2023-02-07T15:20:17.434Z,3.38
2023-02-07T15:22:47.763Z,2.96
2023-02-07T15:25:14.609Z,3.20
2023-02-07T15:27:40.988Z,3.21
2023-02-07T15:30:11.526Z,3.25
2023-02-07T15:32:42.554Z,3.25
2023-02-07T15:35:14.022Z,3.26
2023-02-07T15:37:40.401Z,3.13
2023-02-07T15:40:07.227Z,2.94
2023-02-07T15:42:33.703Z,2.76
2023-02-07T15:45:00.114Z,2.88
2023-02-07T15:47:29.603Z,2.81
2023-02-07T15:50:03.096Z,2.80
2023-02-07T15:52:41.315Z,3.01
2023-02-07T15:55:36.280Z,3.01
2023-02-07T15:58:04.721Z,2.90
2023-02-07T16:00:37.125Z,2.79
2023-02-07T16:03:06.275Z,2.63
2023-02-07T16:05:38.599Z,2.51
2023-02-07T16:08:08.953Z,2.49
2023-02-07T16:10:38.268Z,2.39
2023-02-07T16:13:19.408Z,2.36
2023-02-07T16:15:58.542Z,2.35
2023-02-07T16:18:42.516Z,2.33
2023-02-07T16:21:14.783Z,2.09
2023-02-07T16:23:41.084Z,2.08
2023-02-07T16:26:07.574Z,2.00
2023-02-07T16:28:34.053Z,1.93
2023-02-07T16:31:00.634Z,1.92
2023-02-07T16:33:27.042Z,1.78
2023-02-07T16:35:53.409Z,1.69
2023-02-07T16:38:19.813Z,1.67
2023-02-07T16:40:46.236Z,1.64
2023-02-07T16:43:30.728Z,1.59
2023-02-07T16:45:57.130Z,1.49
2023-02-07T16:48:23.809Z,1.40
2023-02-07T16:50:50.235Z,1.46
2023-02-07T16:53:16.632Z,1.42
2023-02-07T16:55:43.039Z,1.43
2023-02-07T16:58:18.708Z,1.35
2023-02-07T17:00:45.097Z,1.27
2023-02-07T17:03:15.306Z,1.26
2023-02-07T17:05:41.766Z,1.11
2023-02-07T17:08:13.628Z,1.12
2023-02-07T17:10:40.524Z,1.04
2023-02-07T17:13:07.304Z,0.99
2023-02-07T17:15:33.846Z,0.97
2023-02-07T17:18:00.214Z,0.91
2023-02-07T17:20:30.361Z,0.83
2023-02-07T17:22:56.817Z,0.82
2023-02-07T17:25:25.217Z,0.79
2023-02-07T17:27:51.806Z,0.69
2023-02-07T17:30:23.713Z,0.65
2023-02-07T17:32:50.232Z,0.58
2023-02-07T17:35:16.745Z,0.50
2023-02-07T17:37:43.273Z,0.44
2023-02-07T17:40:35.234Z,0.38
2023-02-07T17:43:02.209Z,0.39
2023-02-07T17:45:29.454Z,0.33
2023-02-07T17:47:59.279Z,0.39
2023-02-07T17:50:29.424Z,0.37
2023-02-07T17:52:56.876Z,0.25
2023-02-07T17:55:23.291Z,0.17
2023-02-07T17:57:49.850Z,0.17
2023-02-07T18:00:21.772Z,0.14
2023-02-07T18:02:48.889Z,0.10
2023-02-07T18:05:16.452Z,0.10
2023-02-07T18:07:44.215Z,0.12
2023-02-07T18:10:13.618Z,0.07
2023-02-07T18:12:40.032Z,-0.03
2023-02-07T18:15:08.879Z,-0.10
2023-02-07T18:17:36.738Z,-0.03
2023-02-07T18:20:05.598Z,-0.07
2023-02-07T18:22:32.031Z,-0.06
2023-02-07T18:24:58.453Z,-0.07
2023-02-07T18:27:25.031Z,-0.13
2023-02-07T18:29:51.404Z,-0.15
2023-02-07T18:32:17.791Z,-0.23
2023-02-07T18:34:45.047Z,-0.23
2023-02-07T18:37:11.425Z,-0.31
2023-02-07T18:39:37.873Z,-0.37
2023-02-07T18:42:04.262Z,-0.42
2023-02-07T18:44:30.697Z,-0.45
2023-02-07T18:46:57.089Z,-0.50
2023-02-07T18:49:23.490Z,-0.46
2023-02-07T18:51:50.033Z,-0.57
2023-02-07T18:54:16.456Z,-0.61
2023-02-07T18:56:47.374Z,-0.62
2023-02-07T18:59:17.172Z,-0.78
2023-02-07T19:01:47.951Z,-0.83
2023-02-07T19:04:15.649Z,-0.86
2023-02-07T19:06:42.350Z,-0.80
2023-02-07T19:09:09.156Z,-0.76
2023-02-07T19:11:39.623Z,-0.81
2023-02-07T19:14:15.355Z,-0.82
2023-02-07T19:16:42.321Z,-0.87
2023-02-07T19:19:10.573Z,-0.91
2023-02-07T19:21:37.089Z,-0.91
2023-02-07T19:24:06.778Z,-0.93
2023-02-07T19:26:33.281Z,-0.88
2023-02-07T19:29:00.563Z,-0.93
2023-02-07T19:31:29.210Z,-0.86
2023-02-07T19:33:56.645Z,-0.90
2023-02-07T19:36:25.577Z,-0.90
2023-02-07T19:38:54.118Z,-0.83
2023-02-07T19:41:22.041Z,-0.81
2023-02-07T19:43:48.763Z,-0.89
2023-02-07T19:46:15.474Z,-1.08
2023-02-07T19:48:42.178Z,-1.13
2023-02-07T19:51:19.936Z,-1.19
2023-02-07T19:53:48.050Z,-1.23
2023-02-07T19:56:14.471Z,-1.17
2023-02-07T19:58:45.289Z,-1.16
2023-02-07T20:01:11.985Z,-1.13
2023-02-07T20:03:39.377Z,-1.19
2023-02-07T20:06:10.382Z,-1.10
2023-02-07T20:08:38.742Z,-1.24
2023-02-07T20:11:08.579Z,-1.26
2023-02-07T20:13:36.438Z,-1.37
2023-02-07T20:16:12.633Z,-1.41
2023-02-07T20:18:39.202Z,-1.29
2023-02-07T20:21:11.707Z,-1.25
2023-02-07T20:23:46.708Z,-1.37
2023-02-07T20:26:17.092Z,-1.45
2023-02-07T20:28:43.527Z,-1.60
2023-02-07T20:31:12.730Z,-1.65
2023-02-07T20:33:40.291Z,-1.71
2023-02-07T20:36:07.858Z,-1.73
2023-02-07T20:38:34.593Z,-1.73
2023-02-07T20:41:15.975Z,-1.66
2023-02-07T20:43:42.910Z,-1.81
2023-02-07T20:46:12.478Z,-1.68
2023-02-07T20:48:39.844Z,-1.52
2023-02-07T20:51:10.303Z,-1.56
2023-02-07T20:53:41.242Z,-1.52
2023-02-07T20:56:17.149Z,-1.70
2023-02-07T20:58:47.002Z,-1.52
2023-02-07T21:01:16.040Z,-1.53
2023-02-07T21:03:45.113Z,-1.70
2023-02-07T21:06:12.989Z,-1.46
2023-02-07T21:08:39.856Z,-1.28
2023-02-07T21:11:07.825Z,-1.36
2023-02-07T21:13:34.985Z,-1.34
2023-02-07T21:16:03.826Z,-1.59
2023-02-07T21:18:31.372Z,-1.53
2023-02-07T21:20:57.935Z,-1.55
2023-02-07T21:23:24.555Z,-1.55
2023-02-07T21:25:50.997Z,-1.49
2023-02-07T21:28:17.474Z,-1.54
2023-02-07T21:30:43.981Z,-1.50
2023-02-07T21:33:10.409Z,-1.59
2023-02-07T21:35:36.787Z,-1.59
2023-02-07T21:38:03.272Z,-1.55
2023-02-07T21:40:29.736Z,-1.52
2023-02-07T21:42:56.315Z,-1.51
2023-02-07T21:45:22.717Z,-1.44
2023-02-07T21:47:49.142Z,-1.60
2023-02-07T21:50:15.552Z,-1.57
2023-02-07T21:52:41.986Z,-1.51
2023-02-07T21:55:08.438Z,-1.55
2023-02-07T21:57:34.843Z,-1.55
2023-02-07T22:00:01.215Z,-1.66
2023-02-07T22:02:27.892Z,-1.72
2023-02-07T22:04:54.312Z,-1.73
2023-02-07T22:07:20.770Z,-1.90
2023-02-07T22:09:50.164Z,-1.92
2023-02-07T22:12:16.569Z,-1.81
2023-02-07T22:14:42.943Z,-1.76
2023-02-07T22:17:10.119Z,-1.84
2023-02-07T22:19:36.603Z,-1.91
2023-02-07T22:22:02.968Z,-1.84
2023-02-07T22:24:31.635Z,-1.83
2023-02-07T22:26:58.016Z,-1.81
2023-02-07T22:29:24.387Z,-1.81
2023-02-07T22:31:50.848Z,-1.76
2023-02-07T22:34:17.395Z,-1.71
2023-02-07T22:36:45.137Z,-1.60
2023-02-07T22:39:13.274Z,-1.62
2023-02-07T22:41:39.640Z,-1.79
2023-02-07T22:44:06.068Z,-1.81
2023-02-07T22:46:32.512Z,-1.79
2023-02-07T22:48:59.061Z,-1.82
2023-02-07T22:51:32.336Z,-1.94
2023-02-07T22:54:01.526Z,-1.90
2023-02-07T22:56:28.224Z,-1.93
2023-02-07T22:58:55.215Z,-1.92
2023-02-07T23:01:23.085Z,-1.93
2023-02-07T23:03:50.347Z,-2.00
2023-02-07T23:06:17.153Z,-1.97
2023-02-07T23:08:43.608Z,-1.96
2023-02-07T23:11:12.578Z,-2.06
2023-02-07T23:13:40.773Z,-2.00
2023-02-07T23:16:15.119Z,-2.03
2023-02-07T23:18:41.741Z,-2.02
2023-02-07T23:21:10.014Z,-1.92
2023-02-07T23:23:37.088Z,-1.98
2023-02-07T23:26:09.854Z,-1.96
2023-02-07T23:28:37.307Z,-2.09
2023-02-07T23:31:05.849Z,-2.10
2023-02-07T23:33:32.659Z,-2.00
2023-02-07T23:35:59.461Z,-2.13
2023-02-07T23:38:26.111Z,-2.28
2023-02-07T23:40:52.604Z,-2.12
2023-02-07T23:43:19.015Z,-2.15
2023-02-07T23:45:45.416Z,-2.35
2023-02-07T23:48:11.895Z,-2.40
2023-02-07T23:50:38.673Z,-2.34
2023-02-07T23:53:05.478Z,-2.34
2023-02-07T23:55:31.857Z,-2.34
2023-02-07T23:57:58.264Z,-2.29
